.
WxDataArchive / Data Records for 2016-05-03
2016-05-02 May 2016 2016-05-04

Data Records for Tuesday, 03 May 2016

Time	Temp	Chill	HIndex	Humid	Dewpt	 Wind 	HiWind	WindDir	Rain 	Barom
-----	----	-----	------	-----	-----	------	------	-------	-----	-----
00:00	49.2	49.2	49.2	93	47.3	0	0	---	0.00	29.956 
00:05	49.2	49.2	49.2	93	47.3	0	0	---	0.00	29.956 
00:10	49.2	49.2	49.2	93	47.3	0	0	---	0.00	29.956 
00:15	49.2	49.2	49.2	93	47.3	0	0	---	0.00	29.952 
00:20	49.2	49.2	49.2	93	47.3	0	0	---	0.00	29.952 
00:25	49.2	49.2	49.2	93	47.3	0	0	---	0.00	29.952 
00:30	49.2	49.2	49.2	93	47.3	0	0	---	0.00	29.946 
00:35	49.2	49.2	49.2	93	47.3	0	0	---	0.00	29.946 
00:40	49.2	49.2	49.2	93	47.3	0	0	---	0.00	29.946 
00:45	49.2	49.2	49.2	93	47.3	0	0	---	0.00	29.947 
00:50	49.2	49.2	49.2	93	47.3	0	0	---	0.00	29.947 
00:55	49.2	49.2	49.2	93	47.3	0	0	---	0.00	29.947 
01:00	49.1	49.1	49.1	93	47.2	0	0	---	0.00	29.946 
01:05	49.1	49.1	49.1	93	47.2	0	0	---	0.00	29.946 
01:10	49.1	49.1	49.1	93	47.2	0	0	---	0.00	29.946 
01:15	49.1	49.1	49.1	93	47.2	0	0	---	0.00	29.948 
01:20	49.1	49.1	49.1	93	47.2	0	0	---	0.00	29.948 
01:25	49.1	49.1	49.1	93	47.2	0	0	---	0.00	29.948 
01:30	49.1	49.1	49.1	93	47.2	0	0	---	0.00	29.947 
01:35	49.1	49.1	49.1	93	47.2	0	0	---	0.00	29.947 
01:40	49.1	49.1	49.1	93	47.2	0	0	---	0.00	29.947 
01:45	48.9	48.9	48.9	93	47.0	0	0	---	0.00	29.944 
01:50	48.9	48.9	48.9	93	47.0	0	0	---	0.00	29.944 
01:55	48.9	48.9	48.9	93	47.0	0	0	---	0.00	29.944 
02:00	48.9	48.9	48.9	93	47.0	0	0	---	0.00	29.940 
02:05	48.9	48.9	48.9	94	47.2	0	0	---	0.00	29.940 
02:10	48.9	48.9	48.9	94	47.2	0	0	---	0.00	29.940 
02:15	48.9	48.9	48.9	94	47.2	0	0	---	0.01	29.934 
02:20	48.9	48.9	48.9	94	47.2	0	0	---	0.00	29.934 
02:25	48.9	48.9	48.9	94	47.2	0	0	---	0.00	29.934 
02:30	48.9	48.9	48.9	94	47.2	0	0	---	0.00	29.933 
02:35	48.9	48.9	48.9	94	47.2	0	0	---	0.00	29.933 
02:40	48.9	48.9	48.9	94	47.2	0	0	---	0.00	29.933 
02:45	48.8	48.8	48.8	94	47.1	0	0	---	0.00	29.926 
02:50	48.8	48.8	48.8	94	47.1	0	0	---	0.00	29.926 
02:55	48.8	48.8	48.8	94	47.1	0	0	---	0.00	29.926 
03:00	48.8	48.8	48.8	94	47.1	0	0	---	0.00	29.921 
03:05	48.8	48.8	48.8	94	47.1	0	0	---	0.00	29.921 
03:10	48.6	48.6	48.6	94	47.0	0	1	90	0.00	29.921 
03:15	48.5	48.5	48.5	94	46.9	0	0	---	0.00	29.916 
03:20	48.3	48.3	48.3	94	46.7	0	0	---	0.00	29.916 
03:25	48.3	48.3	48.3	94	46.7	0	1	90	0.00	29.916 
03:30	48.3	48.3	48.3	94	46.7	0	0	---	0.00	29.914 
03:35	48.3	48.3	48.3	94	46.7	0	0	---	0.00	29.914 
03:40	48.2	48.2	48.2	94	46.6	0	0	---	0.00	29.914 
03:45	48.0	48.0	48.0	94	46.4	0	0	---	0.00	29.911 
03:50	47.9	47.9	47.9	94	46.3	0	0	---	0.00	29.911 
03:55	47.7	47.7	47.7	94	46.1	0	0	---	0.00	29.911 
04:00	47.6	47.6	47.6	94	46.0	0	0	---	0.00	29.912 
04:05	47.3	47.3	47.3	94	45.7	0	0	---	0.00	29.912 
04:10	47.0	47.0	47.0	94	45.4	0	0	---	0.00	29.912 
04:15	46.8	46.8	46.8	94	45.2	0	0	---	0.00	29.911 
04:20	46.8	46.8	46.8	94	45.2	0	0	---	0.00	29.911 
04:25	47.0	47.0	47.0	95	45.6	0	0	---	0.00	29.911 
04:30	47.1	47.1	47.1	95	45.7	0	0	---	0.00	29.911 
04:35	47.3	47.3	47.3	95	45.9	0	0	---	0.00	29.911 
04:40	47.4	47.4	47.4	95	46.0	0	0	---	0.00	29.911 
04:45	47.6	47.6	47.6	95	46.2	0	0	---	0.00	29.911 
04:50	47.6	47.6	47.6	95	46.2	0	0	---	0.00	29.911 
04:55	47.6	47.6	47.6	95	46.2	0	0	---	0.00	29.911 
05:00	47.7	47.7	47.7	95	46.3	0	0	---	0.00	29.909 
05:05	47.7	47.7	47.7	95	46.3	0	0	---	0.00	29.909 
05:10	47.6	47.6	47.6	95	46.2	0	0	---	0.00	29.909 
05:15	47.6	47.6	47.6	95	46.2	0	0	---	0.00	29.901 
05:20	47.6	47.6	47.6	95	46.2	0	0	---	0.00	29.901 
05:25	47.4	47.4	47.4	95	46.0	0	0	---	0.00	29.901 
05:30	47.4	47.4	47.4	95	46.0	0	0	---	0.00	29.900 
05:35	47.3	47.3	47.3	95	45.9	0	0	---	0.00	29.900 
05:40	47.3	47.3	47.3	95	45.9	0	0	---	0.00	29.900 
05:45	47.3	47.3	47.3	95	45.9	0	0	---	0.00	29.899 
05:50	47.3	47.3	47.3	95	45.9	0	0	---	0.00	29.899 
05:55	47.3	47.3	47.3	95	45.9	0	0	---	0.00	29.899 
06:00	47.3	47.3	47.3	95	45.9	0	0	---	0.00	29.900 
06:05	47.1	47.1	47.1	95	45.7	0	0	---	0.00	29.900 
06:10	47.1	47.1	47.1	95	45.7	0	0	---	0.00	29.900 
06:15	47.1	47.1	47.1	95	45.7	0	0	---	0.00	29.904 
06:20	47.1	47.1	47.1	95	45.7	0	0	---	0.00	29.904 
06:25	47.1	47.1	47.1	95	45.7	0	0	---	0.00	29.904 
06:30	47.1	47.1	47.1	95	45.7	0	0	---	0.00	29.905 
06:35	47.1	47.1	47.1	95	45.7	0	0	---	0.00	29.905 
06:40	47.1	47.1	47.1	95	45.7	0	0	---	0.00	29.905 
06:45	47.3	47.3	47.3	95	45.9	0	0	---	0.00	29.906 
06:50	47.3	47.3	47.3	95	45.9	0	0	---	0.00	29.906 
06:55	47.3	47.3	47.3	95	45.9	0	0	---	0.00	29.906 
07:00	47.3	47.3	47.3	95	45.9	0	0	---	0.00	29.911 
07:05	47.4	47.4	47.4	95	46.0	0	0	---	0.00	29.911 
07:10	47.4	47.4	47.4	95	46.0	0	0	---	0.00	29.911 
07:15	47.4	47.4	47.4	95	46.0	0	0	---	0.00	29.914 
07:20	47.6	47.6	47.6	96	46.5	0	0	---	0.00	29.914 
07:25	47.6	47.6	47.6	96	46.5	0	0	---	0.00	29.914 
07:30	47.6	47.6	47.6	96	46.5	0	0	---	0.00	29.913 
07:35	47.7	47.7	47.7	95	46.3	0	1	90	0.00	29.913 
07:40	47.7	47.7	47.7	96	46.6	0	0	---	0.00	29.913 
07:45	47.9	47.9	47.9	96	46.8	0	0	---	0.00	29.914 
07:50	47.9	47.9	47.9	96	46.8	0	0	---	0.00	29.914 
07:55	47.9	47.9	47.9	96	46.8	0	0	---	0.00	29.914 
08:00	48.0	48.0	48.0	96	46.9	0	0	---	0.00	29.915 
08:05	48.0	48.0	48.0	96	46.9	0	2	90	0.00	29.915 
08:10	48.0	48.0	48.0	96	46.9	0	1	90	0.00	29.915 
08:15	48.2	48.2	48.2	96	47.1	0	0	---	0.00	29.916 
08:20	48.3	48.3	48.3	96	47.2	0	0	---	0.00	29.916 
08:25	48.3	48.3	48.3	96	47.2	0	1	90	0.00	29.916 
08:30	48.3	48.3	48.3	96	47.2	0	1	90	0.00	29.921 
08:35	48.5	48.5	48.5	96	47.4	0	1	90	0.00	29.921 
08:40	48.5	48.5	48.5	96	47.4	0	0	---	0.00	29.921 
08:45	48.6	48.6	48.6	96	47.5	0	1	90	0.00	29.924 
08:50	48.6	48.6	48.6	96	47.5	0	0	---	0.00	29.924 
08:55	48.8	48.8	48.8	96	47.7	0	0	---	0.00	29.924 
09:00	48.8	48.8	48.8	95	47.4	0	1	90	0.00	29.916 
09:05	48.9	48.9	48.9	96	47.8	0	0	---	0.00	29.916 
09:10	49.1	49.1	49.1	96	48.0	0	2	90	0.00	29.916 
09:15	49.1	49.1	49.1	95	47.7	0	1	90	0.00	29.915 
09:20	49.4	49.4	49.4	95	48.0	0	1	90	0.00	29.915 
09:25	49.5	49.5	49.5	95	48.1	0	0	---	0.00	29.915 
09:30	49.6	49.6	49.6	95	48.2	0	0	---	0.00	29.917 
09:35	49.8	49.8	49.8	95	48.4	0	1	90	0.00	29.917 
09:40	50.1	50.1	50.1	95	48.7	0	2	90	0.00	29.917 
09:45	50.4	50.4	50.4	94	48.7	0	1	90	0.00	29.915 
09:50	50.5	50.5	50.5	94	48.8	0	2	90	0.00	29.915 
09:55	50.7	50.7	50.7	93	48.7	0	1	90	0.00	29.915 
10:00	51.0	51.0	51.0	93	49.0	0	2	90	0.00	29.913 
10:05	51.1	51.1	51.1	92	48.9	0	1	90	0.00	29.913 
10:10	51.7	51.7	51.7	91	49.2	0	2	90	0.00	29.913 
10:15	52.0	52.0	52.0	89	48.9	0	2	90	0.00	29.912 
10:20	52.3	52.3	52.3	87	48.5	0	2	90	0.00	29.912 
10:25	52.6	52.6	52.6	85	48.2	0	2	90	0.00	29.912 
10:30	52.8	52.8	52.8	83	47.8	0	1	90	0.00	29.911 
10:35	53.2	53.2	53.2	80	47.2	0	2	90	0.00	29.911 
10:40	53.6	53.6	53.6	78	46.9	0	1	90	0.00	29.911 
10:45	54.1	54.1	54.1	78	47.4	0	2	90	0.00	29.910 
10:50	54.4	54.4	54.4	75	46.6	0	1	90	0.00	29.910 
10:55	54.5	54.5	54.5	74	46.4	0	2	90	0.00	29.910 
11:00	54.5	54.5	54.5	72	45.7	1	5	292	0.00	29.907 
11:05	54.7	54.7	54.7	72	45.9	0	2	292	0.01	29.907 
11:10	54.8	54.8	54.8	70	45.2	1	4	292	0.00	29.907 
11:15	55.1	55.1	55.1	71	45.9	0	3	292	0.00	29.908 
11:20	55.1	55.1	55.1	69	45.1	0	1	292	0.00	29.908 
11:25	55.3	55.3	55.3	70	45.7	0	1	292	0.00	29.908 
11:30	55.6	55.6	55.6	68	45.2	0	1	292	0.00	29.906 
11:35	55.7	55.7	55.7	67	44.9	0	2	292	0.00	29.906 
11:40	55.9	55.9	55.9	65	44.3	0	1	292	0.00	29.906 
11:45	56.3	56.3	56.3	65	44.7	1	3	68	0.00	29.901 
11:50	56.5	56.5	56.5	64	44.5	1	4	315	0.00	29.901 
11:55	56.3	56.3	56.3	63	43.9	1	4	315	0.00	29.901 
12:00	56.5	56.5	56.5	63	44.1	0	1	315	0.00	29.894 
12:05	56.7	56.7	56.7	61	43.4	1	2	315	0.00	29.894 
12:10	57.2	57.2	57.2	61	43.9	0	2	315	0.00	29.894 
12:15	57.3	57.3	57.3	59	43.1	0	2	315	0.00	29.891 
12:20	57.3	57.3	57.3	58	42.6	1	4	315	0.00	29.891 
12:25	57.5	57.5	57.5	58	42.8	1	3	315	0.00	29.891 
12:30	57.6	57.6	57.6	60	43.8	0	2	315	0.00	29.889 
12:35	57.6	57.6	57.6	55	41.6	1	4	292	0.00	29.889 
12:40	57.6	57.6	57.6	54	41.1	1	5	292	0.00	29.889 
12:45	57.8	57.8	57.8	53	40.8	1	5	315	0.00	29.886 
12:50	57.8	57.8	57.8	55	41.7	1	2	315	0.00	29.886 
12:55	57.6	57.6	57.6	54	41.1	1	3	315	0.00	29.886 
13:00	58.3	58.3	58.3	55	42.2	1	3	315	0.00	29.880 
13:05	58.6	58.6	58.6	49	39.5	2	4	292	0.00	29.880 
13:10	59.3	59.3	59.3	48	39.6	0	3	292	0.00	29.880 
13:15	59.8	59.8	59.8	50	41.1	0	3	68	0.00	29.875 
13:20	59.9	59.9	59.9	49	40.7	1	3	292	0.00	29.875 
13:25	60.2	60.2	60.2	51	42.0	1	3	292	0.00	29.875 
13:30	60.1	60.1	60.1	47	39.8	1	3	292	0.00	29.872 
13:35	60.1	60.1	60.1	48	40.3	1	3	292	0.00	29.872 
13:40	59.8	59.8	59.8	47	39.5	1	5	292	0.00	29.872 
13:45	59.9	59.9	59.9	50	41.2	1	3	292	0.00	29.867 
13:50	60.1	60.1	60.1	48	40.3	1	3	292	0.00	29.867 
13:55	60.2	60.2	60.2	47	39.9	0	1	292	0.00	29.867 
14:00	60.1	60.1	60.1	47	39.8	0	3	292	0.00	29.861 
14:05	59.5	59.5	59.5	46	38.7	1	4	292	0.00	29.861 
14:10	59.0	59.0	59.0	48	39.3	0	3	292	0.00	29.861 
14:15	58.7	58.7	58.7	50	40.1	0	2	292	0.00	29.858 
14:20	58.6	58.6	58.6	50	40.0	0	0	---	0.00	29.858 
14:25	58.6	58.6	58.6	50	40.0	0	2	292	0.00	29.858 
14:30	58.6	58.6	58.6	49	39.5	1	2	292	0.00	29.857 
14:35	58.6	58.6	58.6	49	39.5	0	1	292	0.00	29.857 
14:40	58.7	58.7	58.7	49	39.6	0	2	292	0.00	29.857 
14:45	58.9	58.9	58.9	49	39.8	1	3	292	0.00	29.855 
14:50	59.0	59.0	59.0	50	40.4	0	2	292	0.00	29.855 
14:55	59.3	59.3	59.3	51	41.2	0	3	292	0.00	29.855 
15:00	59.8	59.8	59.8	53	42.6	1	3	292	0.00	29.846 
15:05	60.4	60.4	60.4	48	40.6	1	3	292	0.00	29.846 
15:10	61.0	61.0	61.0	51	42.7	0	3	292	0.00	29.846 
15:15	61.6	61.6	61.6	48	41.7	0	2	292	0.00	29.841 
15:20	61.6	61.6	61.6	47	41.2	0	2	292	0.00	29.841 
15:25	61.5	61.5	61.5	49	42.2	1	3	292	0.00	29.841 
15:30	61.8	61.8	61.8	47	41.4	1	4	292	0.00	29.840 
15:35	61.8	61.8	61.8	48	41.9	1	3	292	0.00	29.840 
15:40	61.5	61.5	61.5	48	41.6	1	2	292	0.00	29.840 
15:45	61.6	61.6	61.6	49	42.3	0	2	315	0.00	29.834 
15:50	61.6	61.6	61.6	48	41.7	1	2	315	0.00	29.834 
15:55	61.2	61.2	61.2	48	41.3	0	4	315	0.00	29.834 
16:00	60.9	60.9	60.9	48	41.1	1	2	315	0.00	29.832 
16:05	60.5	60.5	60.5	50	41.8	1	4	315	0.00	29.832 
16:10	60.2	60.2	60.2	48	40.4	1	3	315	0.00	29.832 
16:15	60.7	60.7	60.7	51	42.5	1	3	315	0.00	29.827 
16:20	61.5	61.5	61.5	46	40.5	1	4	315	0.00	29.827 
16:25	61.6	61.6	61.6	46	40.6	0	2	315	0.00	29.827 
16:30	61.6	61.6	61.6	45	40.0	0	4	315	0.00	29.821 
16:35	60.9	60.9	60.9	45	39.4	0	3	315	0.00	29.821 
16:40	60.7	60.7	60.7	46	39.8	0	2	315	0.00	29.821 
16:45	60.5	60.5	60.5	48	40.7	1	3	315	0.00	29.817 
16:50	60.5	60.5	60.5	50	41.8	1	3	315	0.00	29.817 
16:55	60.5	60.5	60.5	50	41.8	0	1	315	0.00	29.817 
17:00	60.4	60.4	60.4	48	40.6	1	3	315	0.00	29.813 
17:05	60.4	60.4	60.4	49	41.1	1	4	315	0.00	29.813 
17:10	60.4	60.4	60.4	51	42.2	1	3	315	0.00	29.813 
17:15	60.5	60.5	60.5	50	41.8	0	1	315	0.00	29.812 
17:20	60.7	60.7	60.7	50	41.9	0	2	315	0.00	29.812 
17:25	60.7	60.7	60.7	49	41.4	0	2	315	0.00	29.812 
17:30	60.4	60.4	60.4	48	40.6	1	4	315	0.00	29.810 
17:35	60.4	60.4	60.4	49	41.1	0	1	315	0.00	29.810 
17:40	60.4	60.4	60.4	50	41.7	0	2	315	0.00	29.810 
17:45	60.4	60.4	60.4	49	41.1	0	0	---	0.00	29.810 
17:50	60.4	60.4	60.4	46	39.5	0	2	315	0.00	29.810 
17:55	60.7	60.7	60.7	44	38.7	0	2	315	0.00	29.810 
18:00	61.3	61.3	61.3	47	40.9	0	1	315	0.00	29.806 
18:05	62.0	62.0	62.0	46	41.0	0	2	315	0.00	29.806 
18:10	62.0	62.0	62.0	43	39.2	1	2	315	0.00	29.806 
18:15	62.1	62.1	62.1	44	39.9	0	2	315	0.00	29.802 
18:20	62.3	62.3	62.3	43	39.5	0	3	315	0.00	29.802 
18:25	62.1	62.1	62.1	44	39.9	1	3	315	0.00	29.802 
18:30	62.1	62.1	62.1	46	41.1	0	2	315	0.00	29.803 
18:35	62.3	62.3	62.3	46	41.3	0	2	315	0.00	29.803 
18:40	62.4	62.4	62.4	43	39.6	1	3	315	0.00	29.803 
18:45	62.1	62.1	62.1	44	39.9	1	3	315	0.00	29.795 
18:50	61.8	61.8	61.8	45	40.2	1	3	315	0.00	29.795 
18:55	61.3	61.3	61.3	46	40.3	0	3	315	0.00	29.795 
19:00	61.3	61.3	61.3	46	40.3	0	2	315	0.00	29.792 
19:05	61.3	61.3	61.3	47	40.9	0	2	315	0.00	29.792 
19:10	61.3	61.3	61.3	47	40.9	0	1	315	0.00	29.792 
19:15	61.3	61.3	61.3	47	40.9	0	2	315	0.00	29.787 
19:20	61.2	61.2	61.2	45	39.7	0	3	315	0.00	29.787 
19:25	61.0	61.0	61.0	46	40.1	0	3	315	0.00	29.787 
19:30	60.9	60.9	60.9	46	40.0	0	1	315	0.00	29.786 
19:35	60.9	60.9	60.9	47	40.5	0	0	---	0.00	29.786 
19:40	60.7	60.7	60.7	48	40.9	0	0	---	0.00	29.786 
19:45	60.7	60.7	60.7	49	41.4	0	0	---	0.00	29.784 
19:50	60.5	60.5	60.5	48	40.7	0	1	315	0.00	29.784 
19:55	60.4	60.4	60.4	48	40.6	0	0	---	0.00	29.784 
20:00	60.2	60.2	60.2	48	40.4	0	1	315	0.00	29.786 
20:05	60.1	60.1	60.1	48	40.3	0	0	---	0.00	29.786 
20:10	60.1	60.1	60.1	49	40.9	0	0	---	0.00	29.786 
20:15	60.1	60.1	60.1	48	40.3	0	0	---	0.00	29.787 
20:20	59.9	59.9	59.9	48	40.2	0	0	---	0.00	29.787 
20:25	59.6	59.6	59.6	48	39.9	0	0	---	0.00	29.787 
20:30	59.2	59.2	59.2	49	40.0	0	0	---	0.00	29.785 
20:35	58.7	58.7	58.7	50	40.1	0	0	---	0.00	29.785 
20:40	58.1	58.1	58.1	51	40.1	0	0	---	0.00	29.785 
20:45	57.6	57.6	57.6	52	40.1	0	0	---	0.00	29.783 
20:50	57.2	57.2	57.2	53	40.2	0	0	---	0.00	29.783 
20:55	56.7	56.7	56.7	54	40.2	0	0	---	0.00	29.783 
21:00	56.3	56.3	56.3	55	40.3	0	0	---	0.00	29.787 
21:05	55.9	55.9	55.9	56	40.4	0	0	---	0.00	29.787 
21:10	55.6	55.6	55.6	57	40.6	0	0	---	0.00	29.787 
21:15	55.3	55.3	55.3	58	40.8	0	0	---	0.00	29.783 
21:20	55.0	55.0	55.0	58	40.5	0	0	---	0.00	29.783 
21:25	54.7	54.7	54.7	59	40.7	0	0	---	0.00	29.783 
21:30	54.4	54.4	54.4	60	40.8	0	0	---	0.00	29.783 
21:35	54.1	54.1	54.1	61	41.0	0	0	---	0.00	29.783 
21:40	53.8	53.8	53.8	62	41.1	0	0	---	0.00	29.783 
21:45	53.5	53.5	53.5	63	41.2	0	0	---	0.00	29.782 
21:50	53.2	53.2	53.2	64	41.3	0	0	---	0.00	29.782 
21:55	52.9	52.9	52.9	65	41.5	0	0	---	0.00	29.782 
22:00	52.6	52.6	52.6	66	41.6	0	0	---	0.00	29.781 
22:05	52.5	52.5	52.5	66	41.5	0	0	---	0.00	29.781 
22:10	52.3	52.3	52.3	67	41.7	0	0	---	0.00	29.781 
22:15	52.2	52.2	52.2	67	41.6	0	0	---	0.00	29.778 
22:20	52.0	52.0	52.0	68	41.8	0	0	---	0.00	29.778 
22:25	51.9	51.9	51.9	68	41.7	0	0	---	0.00	29.778 
22:30	51.7	51.7	51.7	69	41.9	0	0	---	0.00	29.778 
22:35	51.6	51.6	51.6	69	41.8	0	0	---	0.00	29.778 
22:40	51.4	51.4	51.4	70	41.9	0	0	---	0.00	29.778 
22:45	51.3	51.3	51.3	71	42.2	0	0	---	0.00	29.775 
22:50	51.1	51.1	51.1	71	42.0	0	0	---	0.00	29.775 
22:55	51.1	51.1	51.1	72	42.4	0	0	---	0.00	29.775 
23:00	51.0	51.0	51.0	72	42.3	0	0	---	0.00	29.768 
23:05	51.0	51.0	51.0	73	42.7	0	0	---	0.00	29.768 
23:10	51.1	51.1	51.1	73	42.7	0	0	---	0.00	29.768 
23:15	51.1	51.1	51.1	73	42.7	0	0	---	0.00	29.762 
23:20	51.1	51.1	51.1	73	42.7	0	0	---	0.00	29.762 
23:25	51.1	51.1	51.1	73	42.7	0	0	---	0.00	29.762 
23:30	51.3	51.3	51.3	74	43.3	0	0	---	0.00	29.756 
23:35	51.3	51.3	51.3	74	43.3	0	0	---	0.00	29.756 
23:40	51.4	51.4	51.4	74	43.4	0	0	---	0.00	29.756 
23:45	51.6	51.6	51.6	74	43.6	0	0	---	0.00	29.748 
23:50	51.7	51.7	51.7	74	43.7	0	0	---	0.00	29.748 
23:55	51.7	51.7	51.7	74	43.7	0	0	---	0.00	29.748 

CoCoRaHS
IN-AL-39
A2 Web Hosting
Creative Commons License
GoDaddy
search engine by freefind advanced

loaded 2018-11-20 14:34:06 • last modified 2010-11-18 10:43:29
Privacy PolicyDisclaimer
• wx.awcolley.com is powered by PmWiki v.2002016 •
• all content (unless otherwise noted) © 2018 A W Colley